Other Surface Observations
Issued by NWS Missoula, MT

Home | Current Version | Previous Version | Text Only | Print | Product List | Glossary On
Versions: 1 2 3 4 5 6 7 8 9 10 11 12 13 14 15 16 17 18 19 20 21 22 23 24 25 26 27 28 29 30 31 32 33 34 35 36 37 38 39 40 41 42 43 44 45 46 47 48 49 50
000
SXUS55 KMSO 220823
OSOMSO
MONTANA AWOS SUMMARY
NATIONAL WEATHER SERVICE MISSOULA MT
223 AM MDT WED OCT 22 2014

Montana AWOS Reports

LAUREL      |K6S8 220815Z AUTO 26016G24KT 40SM 10/M02 A2994 RMK AO1 T01001021
ROUNDUP     |KRPX 220815Z AUTO 24012G21KT 40SM 08/M01 A2984 RMK AO1 T00831005




USA.gov is the U.S. government's official web portal to all federal, state and local government web resources and services.